Details From EDDM - Muenchen Franz-josef Strauss
To EGCN - Doncaster-sheffield (ex Raf Finningley
Flight Number -
Tags Generated
Created
Modified
Stats Distance 572 nm / 1,059 km
Max Altitude 0 ft / 0 m
Waypoints 4
Social Downloads 2
Likes 0
Share VATSIM

Download

Looking for another format? Having issues loading an existing format? Contact us
Advertisement - Login to hide

Notes

Generated

Route

EDDM R1823 TNT63 EGCN

ID Type Via Altitude Latitude Longitude Leg Dist Tot Dist Heading (true) Name
O EDDM APT - 0 ft / 0 m 48.34069˚ 11.75108˚ - 0 nm - -
R1823 FIX - 0 ft / 0 m 51.17381˚ 5.48494˚ 296 nm 296 nm 307° / 303° -
TNT63 FIX - 0 ft / 0 m 53.35806˚ -0.65583˚ 260 nm 557 nm 303° / 298° -
O EGCN APT - 0 ft / 0 m 53.48772˚ -0.99749˚ 14 nm 572 nm 303° / 302° -

Altitude Profile

Advertisement - Login to hide

Weather


0- 5 10 15 20 25 30 35+ Temperature / ° C

Clouds and Precipitation
Forecast for 2018-05-26 06:00 UTC. Updated 3 hours ago

Ground ~20,000 ft ~40,000 ft Winds

EDDM

Details ICAO EDDM (MUC)
Name Muenchen Franz-Josef Strauss
Region Germany - Civil
Timezone Europe/Berlin (UTC+2.0)
Stats Elevation 1,487 ft / 453 m (AMSL)
Location 48.353786° 11.786117°
Runways 2
Magnetic Variation 3.215° E

METAR

EDDM 260820Z 07007KT 020V110 9999 SCT010 BKN300 17/14 Q1021 NOSIG

Decode

TAF

TAF EDDM 260500Z 2606/2712 07007KT 1200 BCFG BKN002 BECMG 2606/2608 9999 FEW025 BECMG 2618/2620 VRB02KT PROB30 TEMPO 2701/2705 4000 BCFG BECMG 2706/2708 08007KT

Decode

Departure Runways

ID Width Length Bearing (true) Bearing (mag) Surface Threshold Offset Overrun Length
08L 197 ft / 60 m 13,086 ft / 3,989 m 83.38° 80.16° Concrete 0 ft / 0 m 0 ft / 0 m
08R 197 ft / 60 m 13,086 ft / 3,989 m 83.37° 80.15° Concrete 0 ft / 0 m 0 ft / 0 m
26L 197 ft / 60 m 13,086 ft / 3,989 m 263.41° 260.19° Concrete 0 ft / 0 m 0 ft / 0 m
26R 197 ft / 60 m 13,086 ft / 3,989 m 263.42° 260.20° Concrete 0 ft / 0 m 0 ft / 0 m

EGCN

Details ICAO EGCN (DSA)
Name Doncaster Sheffield
Region United Kingdom
Timezone Europe/London (UTC+1.0)
Stats Elevation 55 ft / 17 m (AMSL)
Location 53.474649° -1.004474°
Runways 1
Magnetic Variation 0.928° W

METAR

EGCN 260820Z 01010KT CAVOK 15/12 Q1024

Decode

TAF

TAF EGCN 260501Z 2606/2706 02008KT 6000 SCT010 BECMG 2606/2609 9999 PROB40 TEMPO 2607/2612 SHRA PROB40 TEMPO 2609/2612 6000 BKN010 PROB40 2623/2706 4000 BR BKN004

Decode

Destination Runways

ID Width Length Bearing (true) Bearing (mag) Surface Threshold Offset Overrun Length
02 197 ft / 60 m 8,975 ft / 2,736 m 17.62° 18.55° Asphalt 486 ft / 148 m 13 ft / 4 m
20 197 ft / 60 m 8,975 ft / 2,736 m 197.63° 198.56° Asphalt 0 ft / 0 m 0 ft / 0 m

Approach Navaids

Runway Type Ident Frequency Range Bearing (true) Bearing (mag) Slope Elevation
20 Localiser IFNL 110.95 MHz 18 nm / 33 km 197.61° 198.54° - 55 ft / 17 m (AMSL)
20 Glidescope IFNL 110.95 MHz 10 nm / 19 km 197.63° 198.56° 3.00° 55 ft / 17 m (AMSL)
20 DME IFNL 110.95 MHz 18 nm / 33 km - - - 11 ft / 3 m (AMSL)

Popular Alternatives